Time;durP1;ratioP1;P1;durP2;ratioP2;P2;SDS_P1;SDS_P2;PMS_P1;PMS_P2;Temp;Humidity;BMP_temperature;BMP_pressure;BME280_temperature;BME280_humidity;BME280_pressure;Samples;Min_cycle;Max_cycle;Signal;HPM_P1;HPM_P2
2021/04/14 00:01:46;;;;;;;11.75;2.30;;;4.90;84.40;;;;;;5052160;28;20116;-68
2021/04/14 00:04:11;;;;;;;9.07;2.20;;;5.00;84.60;;;;;;5052139;28;20581;-67
2021/04/14 00:06:37;;;;;;;8.82;2.03;;;4.90;85.00;;;;;;5051954;28;20040;-69
2021/04/14 00:09:04;;;;;;;8.57;2.30;;;4.90;84.70;;;;;;5051328;28;20066;-69
2021/04/14 00:11:30;;;;;;;11.27;2.50;;;4.90;85.00;;;;;;5051577;28;20029;-68
2021/04/14 00:13:55;;;;;;;13.38;2.50;;;4.90;84.80;;;;;;5052454;28;20033;-70
2021/04/14 00:16:24;;;;;;;11.48;2.15;;;4.90;85.00;;;;;;5049191;28;20036;-68
2021/04/14 00:18:50;;;;;;;11.43;2.25;;;4.80;85.10;;;;;;5050047;28;20025;-67
2021/04/14 00:21:18;;;;;;;13.63;2.58;;;4.80;85.10;;;;;;5047632;28;20383;-68
2021/04/14 00:23:44;;;;;;;13.95;2.60;;;4.80;85.40;;;;;;5048394;28;20506;-70
2021/04/14 00:26:11;;;;;;;8.40;2.70;;;4.80;85.20;;;;;;5047617;28;20104;-70
2021/04/14 00:28:37;;;;;;;10.88;2.05;;;4.80;85.50;;;;;;5050512;28;20040;-68
2021/04/14 00:31:04;;;;;;;18.88;2.13;;;4.80;85.30;;;;;;5026577;28;20514;-68
2021/04/14 00:33:30;;;;;;;10.98;3.08;;;4.70;85.40;;;;;;5043381;28;20064;-70
2021/04/14 00:35:56;;;;;;;12.18;2.85;;;4.70;85.40;;;;;;5051636;28;20114;-69
2021/04/14 00:38:22;;;;;;;16.40;3.50;;;4.70;85.50;;;;;;5034946;28;20057;-69
2021/04/14 00:40:55;;;;;;;9.60;2.13;;;4.70;85.60;;;;;;5048149;28;20025;-69
2021/04/14 00:43:26;;;;;;;10.95;2.25;;;4.70;85.40;;;;;;5049409;28;20505;-70
2021/04/14 00:45:53;;;;;;;7.68;2.00;;;4.70;85.30;;;;;;5051982;28;20021;-68
2021/04/14 00:48:19;;;;;;;13.00;2.42;;;4.70;85.50;;;;;;5049997;28;20029;-68
2021/04/14 00:50:45;;;;;;;15.73;2.70;;;4.70;86.10;;;;;;5046724;28;20025;-69
2021/04/14 00:53:11;;;;;;;11.85;2.08;;;4.60;86.10;;;;;;5050676;28;20035;-69
2021/04/14 00:55:38;;;;;;;10.52;2.10;;;4.60;86.60;;;;;;5051331;28;20049;-68
2021/04/14 00:58:11;;;;;;;15.73;2.15;;;4.50;86.40;;;;;;5032264;28;20037;-68
2021/04/14 01:00:45;;;;;;;15.75;3.15;;;4.60;86.40;;;;;;5048411;28;20478;-70
2021/04/14 01:03:19;;;;;;;14.50;2.20;;;4.50;86.90;;;;;;5046569;28;20032;-71
2021/04/14 01:05:46;;;;;;;6.47;1.88;;;4.50;87.20;;;;;;5048937;28;20087;-68
2021/04/14 01:08:12;;;;;;;16.02;2.25;;;4.40;87.30;;;;;;5051023;28;20057;-68
2021/04/14 01:10:38;;;;;;;12.50;2.65;;;4.50;87.50;;;;;;5049802;28;20068;-68
2021/04/14 01:13:04;;;;;;;13.50;2.38;;;4.40;87.80;;;;;;5051998;28;20712;-69
2021/04/14 01:15:35;;;;;;;11.02;2.30;;;4.40;87.80;;;;;;5049437;28;20045;-68
2021/04/14 01:18:00;;;;;;;13.77;2.00;;;4.40;87.90;;;;;;5049004;28;20036;-69
2021/04/14 01:20:27;;;;;;;11.00;2.30;;;4.30;87.60;;;;;;5031053;28;20382;-69
2021/04/14 01:22:53;;;;;;;10.00;1.90;;;4.30;87.80;;;;;;5049766;28;20946;-68
2021/04/14 01:25:24;;;;;;;11.25;2.25;;;4.30;87.60;;;;;;5050360;28;20553;-68
2021/04/14 01:27:50;;;;;;;14.43;3.43;;;4.40;87.60;;;;;;5051554;28;20025;-68
2021/04/14 01:30:27;;;;;;;10.05;2.30;;;4.40;87.40;;;;;;5050533;28;20483;-69
2021/04/14 01:32:53;;;;;;;9.27;1.95;;;4.30;88.00;;;;;;5050747;28;20537;-69
2021/04/14 01:35:20;;;;;;;11.35;2.40;;;4.30;88.00;;;;;;5032205;28;20028;-69
2021/04/14 01:37:50;;;;;;;10.18;2.45;;;4.30;87.70;;;;;;5050323;28;20025;-68
2021/04/14 01:40:17;;;;;;;9.30;2.22;;;4.30;87.60;;;;;;5050120;28;20036;-68
2021/04/14 01:42:42;;;;;;;12.48;2.20;;;4.30;88.10;;;;;;5033329;28;20113;-71
2021/04/14 01:45:10;;;;;;;13.05;2.75;;;4.30;87.70;;;;;;5050817;28;20112;-69
2021/04/14 01:47:36;;;;;;;13.45;2.88;;;4.20;88.10;;;;;;5048634;28;20044;-68
2021/04/14 01:50:03;;;;;;;11.05;2.33;;;4.20;88.30;;;;;;5048019;28;20033;-69
2021/04/14 01:52:28;;;;;;;12.77;2.30;;;4.20;88.60;;;;;;5049638;28;20044;-68
2021/04/14 01:54:54;;;;;;;9.77;2.25;;;4.20;88.50;;;;;;5052068;28;20029;-68
2021/04/14 01:57:20;;;;;;;9.70;2.63;;;4.10;88.20;;;;;;5050388;28;20443;-69
2021/04/14 01:59:45;;;;;;;7.93;2.00;;;4.10;88.40;;;;;;5049033;28;20502;-69
2021/04/14 02:02:11;;;;;;;11.88;2.00;;;4.10;88.50;;;;;;5046783;28;20494;-70
2021/04/14 02:04:37;;;;;;;9.55;2.60;;;4.10;88.70;;;;;;5049219;28;20652;-69
2021/04/14 02:07:03;;;;;;;13.90;3.35;;;4.10;88.60;;;;;;5049766;28;20364;-68
2021/04/14 02:09:29;;;;;;;13.82;2.80;;;4.10;88.50;;;;;;5048661;28;20548;-70
2021/04/14 02:11:55;;;;;;;16.27;2.30;;;4.10;88.30;;;;;;5049581;28;20029;-69
2021/04/14 02:14:21;;;;;;;14.07;2.47;;;4.00;88.00;;;;;;5031858;28;20171;-69
2021/04/14 02:16:47;;;;;;;8.70;2.70;;;4.00;88.20;;;;;;5017216;28;20080;-68
2021/04/14 02:19:12;;;;;;;10.30;2.38;;;4.00;88.30;;;;;;5052228;28;20036;-68
2021/04/14 02:21:38;;;;;;;10.65;2.72;;;4.00;88.10;;;;;;5052017;28;20028;-69
2021/04/14 02:24:05;;;;;;;11.00;2.63;;;4.00;88.00;;;;;;5052532;28;20441;-69
2021/04/14 02:26:30;;;;;;;10.57;2.25;;;4.00;87.70;;;;;;5051778;28;20031;-70
2021/04/14 02:28:56;;;;;;;6.28;2.60;;;4.10;87.80;;;;;;5052985;28;20037;-70
2021/04/14 02:31:31;;;;;;;10.88;2.45;;;4.00;87.60;;;;;;5054262;28;20805;-69
2021/04/14 02:34:04;;;;;;;12.32;1.90;;;4.00;87.80;;;;;;5049376;28;20068;-69
2021/04/14 02:36:30;;;;;;;5.97;2.15;;;4.00;88.00;;;;;;5053653;28;20155;-68
2021/04/14 02:38:56;;;;;;;7.10;1.80;;;4.00;88.10;;;;;;5054081;28;20104;-68
2021/04/14 02:41:22;;;;;;;15.18;2.28;;;4.00;88.10;;;;;;5052392;28;20025;-68
2021/04/14 02:43:48;;;;;;;10.63;2.13;;;4.00;88.10;;;;;;5049908;28;20072;-68
2021/04/14 02:46:14;;;;;;;11.07;2.38;;;3.90;88.00;;;;;;5051321;28;20071;-69
2021/04/14 02:48:40;;;;;;;6.82;1.98;;;3.90;88.20;;;;;;5053765;28;20060;-69
2021/04/14 02:51:07;;;;;;;7.90;2.30;;;3.90;88.30;;;;;;5052866;28;20132;-69
2021/04/14 02:53:33;;;;;;;14.93;2.45;;;3.90;88.40;;;;;;5053551;28;20039;-68
2021/04/14 02:55:59;;;;;;;16.40;2.55;;;3.90;88.60;;;;;;5034341;28;20033;-69
2021/04/14 02:58:25;;;;;;;11.18;2.33;;;3.90;88.30;;;;;;5051167;28;20502;-69
2021/04/14 03:00:50;;;;;;;10.20;1.70;;;3.90;88.50;;;;;;5049877;28;20372;-68
2021/04/14 03:03:16;;;;;;;6.47;1.73;;;3.90;88.50;;;;;;5050672;28;20083;-68
2021/04/14 03:05:42;;;;;;;9.65;2.15;;;3.90;88.20;;;;;;5052606;28;20028;-69
2021/04/14 03:08:07;;;;;;;8.10;2.22;;;3.90;88.10;;;;;;5052680;28;20402;-69
2021/04/14 03:10:34;;;;;;;9.68;2.40;;;3.90;88.10;;;;;;5017821;28;20020;-69
2021/04/14 03:13:01;;;;;;;6.97;2.30;;;3.90;88.20;;;;;;5038062;28;20032;-68
2021/04/14 03:15:30;;;;;;;15.02;2.92;;;3.90;88.20;;;;;;5051853;28;20032;-69
2021/04/14 03:17:56;;;;;;;10.25;2.63;;;3.90;88.00;;;;;;5049076;28;20029;-69
2021/04/14 03:20:22;;;;;;;14.45;2.40;;;3.90;88.20;;;;;;5051613;28;20028;-68
2021/04/14 03:22:51;;;;;;;10.93;2.80;;;3.80;88.40;;;;;;5053844;28;20029;-67
2021/04/14 03:25:18;;;;;;;9.52;2.28;;;3.80;88.70;;;;;;5051259;28;20033;-68
2021/04/14 03:27:44;;;;;;;12.30;2.30;;;3.80;88.40;;;;;;5047510;28;20136;-67
2021/04/14 03:30:10;;;;;;;7.70;2.45;;;3.80;88.40;;;;;;5051614;28;20112;-68
2021/04/14 03:32:37;;;;;;;8.70;2.30;;;3.80;88.10;;;;;;5057121;28;20025;-67
2021/04/14 03:35:05;;;;;;;12.40;2.80;;;3.80;88.30;;;;;;5052593;28;20033;-67
2021/04/14 03:37:31;;;;;;;11.52;2.90;;;3.80;88.50;;;;;;5035073;28;20479;-68
2021/04/14 03:39:57;;;;;;;10.10;2.40;;;3.70;88.40;;;;;;5051067;28;20696;-67
2021/04/14 03:42:22;;;;;;;8.38;2.53;;;3.80;88.80;;;;;;5052510;28;20025;-67
2021/04/14 03:44:53;;;;;;;9.00;2.70;;;3.70;89.10;;;;;;5052841;28;20040;-68
2021/04/14 03:47:20;;;;;;;7.35;2.53;;;3.70;88.90;;;;;;5052578;28;20048;-67
2021/04/14 03:49:46;;;;;;;7.75;2.65;;;3.60;89.40;;;;;;5049817;28;20555;-69
2021/04/14 03:52:12;;;;;;;11.85;2.80;;;3.60;89.30;;;;;;5050819;28;20029;-68
2021/04/14 03:54:38;;;;;;;13.18;2.97;;;3.60;89.20;;;;;;5050272;28;20028;-68
2021/04/14 03:57:05;;;;;;;16.23;3.13;;;3.60;89.50;;;;;;5051497;28;20391;-69
2021/04/14 03:59:30;;;;;;;9.00;2.90;;;3.50;89.60;;;;;;5052284;28;20525;-69
2021/04/14 04:01:56;;;;;;;12.45;2.10;;;3.60;89.70;;;;;;5050664;28;20086;-68
2021/04/14 04:04:23;;;;;;;11.52;2.55;;;3.50;89.70;;;;;;5030585;28;20029;-68
2021/04/14 04:06:48;;;;;;;7.43;2.60;;;3.50;89.60;;;;;;5050093;28;20033;-68
2021/04/14 04:09:15;;;;;;;14.15;2.97;;;3.50;90.00;;;;;;5048311;28;20104;-70
2021/04/14 04:11:41;;;;;;;8.32;2.08;;;3.50;89.90;;;;;;5050024;28;20086;-69
2021/04/14 04:14:06;;;;;;;9.25;3.08;;;3.50;89.60;;;;;;5047202;28;20112;-67
2021/04/14 04:16:32;;;;;;;10.82;2.20;;;3.50;90.10;;;;;;5052582;28;20196;-69
2021/04/14 04:18:58;;;;;;;8.55;2.63;;;3.50;89.50;;;;;;5050265;28;20052;-68
2021/04/14 04:21:27;;;;;;;9.98;2.15;;;3.50;89.40;;;;;;5047673;28;20020;-67
2021/04/14 04:23:52;;;;;;;7.65;2.00;;;3.50;89.30;;;;;;5051805;28;20386;-72
2021/04/14 04:26:18;;;;;;;8.10;2.70;;;3.60;89.60;;;;;;5033588;28;20029;-70
2021/04/14 04:28:44;;;;;;;5.68;2.10;;;3.50;89.40;;;;;;5050741;28;20031;-69
2021/04/14 04:31:10;;;;;;;8.80;1.83;;;3.60;89.40;;;;;;5051847;28;20040;-68
2021/04/14 04:33:35;;;;;;;6.80;2.60;;;3.60;89.20;;;;;;5051563;28;20083;-69
2021/04/14 04:36:02;;;;;;;9.57;2.63;;;3.60;89.10;;;;;;5051386;28;20033;-68
2021/04/14 04:38:28;;;;;;;8.02;1.88;;;3.60;89.20;;;;;;5051036;28;20107;-68
2021/04/14 04:40:55;;;;;;;7.43;2.20;;;3.60;89.00;;;;;;5050224;28;20107;-70
2021/04/14 04:43:21;;;;;;;9.25;2.10;;;3.60;88.80;;;;;;5053160;28;20079;-68
2021/04/14 04:45:47;;;;;;;11.32;2.42;;;3.60;89.10;;;;;;5051883;28;20025;-69
2021/04/14 04:48:15;;;;;;;8.32;2.10;;;3.60;88.90;;;;;;5030062;28;20369;-68
2021/04/14 04:50:42;;;;;;;6.82;2.45;;;3.60;89.30;;;;;;5047118;28;20116;-69
2021/04/14 04:53:11;;;;;;;10.73;2.17;;;3.60;89.20;;;;;;5030570;28;20029;-69
2021/04/14 04:55:41;;;;;;;15.25;2.53;;;3.60;89.20;;;;;;5050687;28;20501;-70
2021/04/14 04:58:06;;;;;;;6.82;2.10;;;3.60;89.10;;;;;;5051633;28;20501;-69
2021/04/14 05:00:32;;;;;;;8.13;2.05;;;3.60;89.30;;;;;;5031611;28;20179;-68
2021/04/14 05:02:58;;;;;;;11.50;2.53;;;3.60;89.50;;;;;;5051296;28;20070;-68
2021/04/14 05:05:27;;;;;;;11.77;2.20;;;3.60;89.50;;;;;;5049518;28;20100;-69
2021/04/14 05:07:53;;;;;;;5.97;1.88;;;3.70;89.40;;;;;;5050404;28;20118;-70
2021/04/14 05:10:19;;;;;;;8.55;2.17;;;3.70;89.40;;;;;;5051466;28;20127;-68
2021/04/14 05:12:49;;;;;;;10.10;2.22;;;3.70;89.80;;;;;;5051067;28;20486;-69
2021/04/14 05:15:15;;;;;;;10.13;2.58;;;3.70;89.70;;;;;;5050371;28;20029;-69
2021/04/14 05:17:40;;;;;;;16.17;2.63;;;3.70;89.80;;;;;;5048761;28;20119;-68
2021/04/14 05:20:06;;;;;;;12.10;3.08;;;3.80;90.00;;;;;;5048012;28;20086;-68
2021/04/14 05:22:32;;;;;;;9.63;2.35;;;3.80;90.00;;;;;;5050671;28;20479;-68
2021/04/14 05:24:58;;;;;;;7.45;2.58;;;3.90;90.00;;;;;;5050921;28;20032;-68
2021/04/14 05:27:25;;;;;;;9.52;2.45;;;3.90;90.00;;;;;;5051978;28;20040;-69
2021/04/14 05:29:51;;;;;;;12.77;2.28;;;3.90;90.00;;;;;;5050609;28;20033;-68
2021/04/14 05:32:18;;;;;;;11.02;3.15;;;4.00;90.10;;;;;;5050682;28;20021;-66
2021/04/14 05:34:44;;;;;;;9.60;2.03;;;4.00;90.00;;;;;;5052355;28;20103;-69
2021/04/14 05:37:10;;;;;;;9.32;2.08;;;4.00;89.80;;;;;;5050405;28;20152;-68
2021/04/14 05:39:36;;;;;;;9.25;1.63;;;4.00;89.70;;;;;;5050608;28;20592;-66
2021/04/14 05:42:02;;;;;;;14.02;2.47;;;4.10;89.70;;;;;;5050815;28;20047;-66
2021/04/14 05:44:27;;;;;;;12.80;2.58;;;4.10;89.60;;;;;;5031912;28;20022;-65
2021/04/14 05:46:53;;;;;;;5.35;1.70;;;4.10;89.20;;;;;;5047121;28;20102;-66
2021/04/14 05:49:19;;;;;;;7.47;1.83;;;4.10;89.20;;;;;;5052382;22;20072;-67
2021/04/14 05:51:45;;;;;;;10.48;1.90;;;4.10;89.40;;;;;;5022517;28;20017;-67
2021/04/14 05:54:10;;;;;;;6.88;2.20;;;4.20;89.40;;;;;;5041566;28;20448;-67
2021/04/14 05:56:36;;;;;;;5.70;1.45;;;4.20;89.20;;;;;;5040318;28;20029;-67
2021/04/14 05:59:02;;;;;;;6.25;1.85;;;4.20;89.10;;;;;;5040125;28;20048;-67
2021/04/14 06:01:31;;;;;;;7.93;1.92;;;4.20;88.90;;;;;;5037554;28;20136;-67
2021/04/14 06:03:56;;;;;;;8.18;2.20;;;4.20;89.00;;;;;;5038656;28;20035;-67
2021/04/14 06:06:22;;;;;;;12.85;1.90;;;4.20;89.10;;;;;;5038525;28;20478;-67
2021/04/14 06:08:48;;;;;;;6.60;1.85;;;4.30;89.20;;;;;;5040803;28;20033;-67
2021/04/14 06:11:14;;;;;;;5.78;1.90;;;4.20;89.40;;;;;;5043109;28;20091;-67
2021/04/14 06:13:40;;;;;;;7.65;2.17;;;4.30;89.40;;;;;;5041679;28;20049;-67
2021/04/14 06:16:07;;;;;;;8.52;1.88;;;4.30;89.30;;;;;;5038573;28;20068;-68
2021/04/14 06:18:33;;;;;;;7.40;1.80;;;4.30;88.70;;;;;;5032592;28;20080;-73
2021/04/14 06:21:01;;;;;;;7.82;2.20;;;4.30;88.80;;;;;;5017073;28;20026;-69
2021/04/14 06:23:27;;;;;;;10.38;1.98;;;4.40;89.00;;;;;;5036307;28;20122;-69
2021/04/14 06:26:16;;;;;;;8.73;2.17;;;4.40;88.50;;;;;;5037826;28;20120;-69
2021/04/14 06:28:40;;;;;;;7.40;2.10;;;4.40;88.80;;;;;;5038617;28;20033;-68
2021/04/14 06:31:07;;;;;;;6.03;1.80;;;4.50;88.60;;;;;;5037362;28;20029;-70
2021/04/14 06:33:36;;;;;;;8.05;1.77;;;4.50;88.60;;;;;;5041006;28;20128;-71
2021/04/14 06:36:02;;;;;;;5.25;1.73;;;4.50;88.60;;;;;;5038231;28;20075;-69
2021/04/14 06:38:31;;;;;;;6.85;1.80;;;4.60;88.30;;;;;;5039302;28;20075;-69
2021/04/14 06:44:16;;;;;;;6.68;1.65;;;4.70;87.30;;;;;;5037806;28;20025;-70
2021/04/14 06:46:41;;;;;;;6.88;2.08;;;4.70;87.20;;;;;;5040824;28;20040;-70
2021/04/14 06:49:31;;;;;;;5.15;1.80;;;4.80;87.20;;;;;;5022820;28;20129;-69
2021/04/14 06:52:20;;;;;;;8.63;2.53;;;4.80;87.30;;;;;;5039803;28;20040;-70
2021/04/14 06:54:52;;;;;;;6.15;1.50;;;4.80;86.70;;;;;;5027151;28;20128;-70
2021/04/14 06:57:21;;;;;;;12.27;2.10;;;4.90;86.10;;;;;;5038376;28;20502;-69
2021/04/14 07:00:01;;;;;;;5.10;1.63;;;5.00;85.80;;;;;;5036849;28;20029;-68
2021/04/14 07:02:42;;;;;;;6.03;1.83;;;5.00;85.20;;;;;;5038368;28;20021;-69
2021/04/14 07:05:21;;;;;;;10.27;2.28;;;5.00;85.60;;;;;;5038137;28;20029;-69
2021/04/14 07:07:49;;;;;;;10.27;2.15;;;5.00;85.70;;;;;;5039108;28;20052;-69
2021/04/14 07:10:22;;;;;;;5.28;2.33;;;5.10;85.70;;;;;;5036251;28;20029;-69
2021/04/14 07:12:50;;;;;;;9.32;1.60;;;5.10;85.60;;;;;;5039068;28;20033;-68
2021/04/14 07:15:20;;;;;;;4.30;1.80;;;5.10;85.20;;;;;;5039353;28;20087;-69
2021/04/14 07:18:12;;;;;;;7.40;1.83;;;5.20;84.70;;;;;;5039374;28;20955;-68
2021/04/14 07:21:13;;;;;;;13.82;1.77;;;5.30;84.20;;;;;;5039338;28;20522;-69
2021/04/14 07:23:52;;;;;;;10.13;1.67;;;5.40;83.20;;;;;;5037236;28;20030;-71
2021/04/14 07:26:33;;;;;;;7.00;1.63;;;5.60;81.60;;;;;;5022032;28;20036;-68
2021/04/14 07:29:18;;;;;;;9.32;1.60;;;5.70;81.40;;;;;;5040131;28;20060;-68
2021/04/14 07:31:53;;;;;;;6.63;1.35;;;5.80;80.60;;;;;;5037940;28;20025;-69
2021/04/14 07:34:45;;;;;;;6.57;1.60;;;5.80;80.40;;;;;;5003329;28;20388;-69
2021/04/14 07:37:27;;;;;;;4.75;1.17;;;5.70;80.00;;;;;;5040812;28;20048;-68
2021/04/14 07:40:10;;;;;;;8.98;1.45;;;5.80;80.10;;;;;;5035820;28;20048;-68
2021/04/14 07:42:46;;;;;;;5.13;1.00;;;5.80;79.80;;;;;;5038845;28;20025;-70
2021/04/14 07:45:16;;;;;;;5.35;1.10;;;5.80;80.40;;;;;;5037578;28;20044;-69
2021/04/14 07:48:13;;;;;;;9.27;1.90;;;5.90;80.40;;;;;;5037984;28;20032;-69
2021/04/14 07:50:40;;;;;;;8.80;1.42;;;5.90;79.50;;;;;;5024708;28;20503;-69
2021/04/14 07:53:36;;;;;;;5.25;1.30;;;6.00;79.80;;;;;;5038539;28;20080;-69
2021/04/14 07:56:06;;;;;;;11.30;2.33;;;6.00;80.10;;;;;;5021788;28;20442;-69
2021/04/14 07:58:33;;;;;;;8.35;1.42;;;6.00;80.10;;;;;;5037918;28;20025;-69
2021/04/14 08:01:16;;;;;;;7.00;1.92;;;6.00;80.00;;;;;;5020118;28;20056;-69
2021/04/14 08:03:43;;;;;;;4.45;1.20;;;6.10;80.10;;;;;;5037350;28;20049;-69
2021/04/14 08:06:17;;;;;;;7.10;1.48;;;6.20;79.70;;;;;;5038492;28;20033;-70
2021/04/14 08:08:46;;;;;;;4.15;1.17;;;6.20;79.70;;;;;;5037914;28;20084;-69
2021/04/14 08:11:26;;;;;;;4.65;1.30;;;6.20;79.40;;;;;;5036383;28;20108;-70
2021/04/14 08:13:53;;;;;;;6.50;1.13;;;6.20;78.30;;;;;;5034614;28;20453;-70
2021/04/14 08:16:36;;;;;;;4.95;1.50;;;6.10;79.00;;;;;;5037970;28;20044;-70
2021/04/14 08:19:24;;;;;;;6.30;1.10;;;6.00;79.40;;;;;;5038040;28;20385;-70
2021/04/14 08:21:56;;;;;;;4.07;0.90;;;6.00;79.10;;;;;;5035200;28;20044;-68
2021/04/14 08:24:31;;;;;;;7.28;1.20;;;6.00;78.90;;;;;;5034582;28;20727;-68
2021/04/14 08:27:00;;;;;;;4.80;0.90;;;6.00;79.00;;;;;;5034282;28;20030;-70
2021/04/14 08:29:26;;;;;;;5.00;1.20;;;6.00;78.60;;;;;;5041440;28;20049;-69
2021/04/14 08:31:54;;;;;;;2.22;0.65;;;6.00;79.50;;;;;;5046328;28;20032;-69
2021/04/14 08:34:27;;;;;;;4.45;1.10;;;6.00;78.90;;;;;;5035745;28;20605;-69
2021/04/14 08:37:10;;;;;;;4.45;1.27;;;6.10;78.90;;;;;;5037731;28;20041;-69
2021/04/14 08:39:35;;;;;;;9.82;2.05;;;6.10;78.70;;;;;;5038547;28;20479;-69
2021/04/14 08:42:15;;;;;;;7.78;1.40;;;6.20;78.10;;;;;;5038403;28;20039;-70
2021/04/14 08:44:44;;;;;;;5.70;1.00;;;6.20;77.90;;;;;;5038772;28;20041;-70
2021/04/14 08:47:14;;;;;;;4.55;1.10;;;6.10;78.50;;;;;;5036426;28;20037;-70
2021/04/14 08:49:41;;;;;;;3.00;0.90;;;6.10;78.30;;;;;;5038184;28;20033;-70
2021/04/14 08:52:21;;;;;;;11.48;1.30;;;6.10;77.60;;;;;;5018789;28;20044;-70
2021/04/14 08:54:48;;;;;;;9.30;1.40;;;6.20;77.20;;;;;;5037814;28;20033;-68
2021/04/14 08:57:15;;;;;;;4.40;1.23;;;6.20;77.50;;;;;;5036067;28;20026;-70
2021/04/14 08:59:41;;;;;;;8.70;1.30;;;6.30;77.50;;;;;;5019090;28;20024;-69
2021/04/14 09:02:09;;;;;;;5.05;1.20;;;6.40;77.40;;;;;;5035120;28;20479;-70
2021/04/14 09:04:36;;;;;;;8.23;1.73;;;6.50;75.40;;;;;;5036314;28;20033;-68
2021/04/14 09:07:04;;;;;;;10.85;1.40;;;6.70;74.50;;;;;;5037414;28;20033;-70
2021/04/14 09:09:33;;;;;;;6.90;1.30;;;6.80;74.00;;;;;;5039127;28;20426;-69
2021/04/14 09:12:03;;;;;;;4.13;1.15;;;6.80;72.90;;;;;;5017882;28;20036;-69
2021/04/14 09:14:30;;;;;;;4.88;1.15;;;6.80;72.90;;;;;;5038709;28;20048;-68
2021/04/14 09:17:02;;;;;;;7.32;1.35;;;6.90;71.60;;;;;;5035786;28;20530;-69
2021/04/14 09:19:30;;;;;;;5.82;1.15;;;6.90;71.00;;;;;;5033173;28;20033;-69
2021/04/14 09:22:12;;;;;;;6.68;1.77;;;7.00;71.80;;;;;;5036112;28;20504;-69
2021/04/14 09:24:43;;;;;;;9.00;1.60;;;7.00;72.50;;;;;;5041383;28;20572;-70
2021/04/14 09:28:03;;;;;;;5.60;1.35;;;7.00;71.80;;;;;;5035710;28;20073;-69
2021/04/14 09:30:28;;;;;;;5.82;1.38;;;7.00;71.50;;;;;;4955173;28;20471;-68
2021/04/14 09:33:04;;;;;;;8.13;1.33;;;7.00;70.90;;;;;;4953212;28;21397;-69
2021/04/14 09:35:30;;;;;;;6.68;1.27;;;7.20;69.60;;;;;;4950695;28;20042;-69
2021/04/14 09:38:09;;;;;;;7.55;1.55;;;7.20;68.10;;;;;;4950265;28;20031;-69
2021/04/14 09:40:36;;;;;;;6.78;1.35;;;7.10;67.80;;;;;;4948572;28;20090;-69
2021/04/14 09:43:26;;;;;;;11.02;1.80;;;7.00;68.00;;;;;;4952202;28;20036;-70
2021/04/14 09:45:58;;;;;;;6.28;1.58;;;6.90;68.20;;;;;;4936802;28;20024;-69
2021/04/14 09:48:25;;;;;;;8.65;1.35;;;6.80;69.30;;;;;;4956083;28;20453;-69
2021/04/14 09:50:53;;;;;;;7.22;1.50;;;6.80;69.70;;;;;;4954666;28;20039;-69
2021/04/14 09:53:28;;;;;;;9.10;1.48;;;6.90;68.70;;;;;;4955764;28;20107;-70
2021/04/14 09:56:10;;;;;;;6.20;1.25;;;7.00;68.20;;;;;;4954581;28;20042;-70
2021/04/14 09:59:17;;;;;;;4.28;1.20;;;7.10;67.30;;;;;;4954658;28;20436;-69
2021/04/14 10:01:50;;;;;;;4.30;1.10;;;7.30;64.90;;;;;;4956890;28;20078;-69
2021/04/14 10:04:24;;;;;;;2.33;0.80;;;7.50;62.90;;;;;;5026687;28;20037;-69
2021/04/14 10:06:54;;;;;;;3.33;0.85;;;7.60;59.40;;;;;;5037578;28;20514;-69
2021/04/14 10:09:24;;;;;;;3.08;0.80;;;7.60;61.60;;;;;;5038118;28;20104;-70
2021/04/14 10:11:50;;;;;;;3.92;1.02;;;7.80;61.60;;;;;;5036289;28;20037;-70
2021/04/14 10:14:20;;;;;;;2.85;1.02;;;7.90;58.60;;;;;;5037441;28;20037;-70
2021/04/14 10:16:47;;;;;;;3.42;1.10;;;8.00;60.20;;;;;;5037018;28;20728;-70
2021/04/14 10:19:26;;;;;;;3.80;0.95;;;8.10;61.40;;;;;;5036226;28;20099;-70
2021/04/14 10:21:52;;;;;;;6.38;1.65;;;8.30;61.30;;;;;;5035278;28;20105;-70
2021/04/14 10:24:18;;;;;;;3.72;1.02;;;8.20;61.90;;;;;;5036534;28;20502;-70
2021/04/14 10:26:53;;;;;;;3.58;0.90;;;8.30;58.50;;;;;;5036097;28;20033;-69
2021/04/14 10:29:22;;;;;;;4.45;0.80;;;8.40;53.50;;;;;;5038414;28;20037;-71
2021/04/14 10:31:48;;;;;;;6.97;1.00;;;8.40;56.10;;;;;;5036825;28;20033;-69
2021/04/14 10:34:26;;;;;;;2.28;0.63;;;8.30;52.90;;;;;;5016807;28;20033;-70
2021/04/14 10:36:53;;;;;;;4.18;1.02;;;8.30;53.10;;;;;;5037117;28;20538;-70
2021/04/14 10:39:27;;;;;;;3.88;1.25;;;8.30;56.90;;;;;;5039259;28;20593;-70
2021/04/14 10:41:54;;;;;;;5.35;1.23;;;8.30;58.90;;;;;;5038498;28;20033;-70
2021/04/14 10:44:27;;;;;;;1.80;0.70;;;8.30;59.40;;;;;;5038556;28;20502;-71
2021/04/14 10:47:09;;;;;;;6.10;1.30;;;8.30;60.00;;;;;;5041460;28;20491;-69
2021/04/14 10:49:36;;;;;;;9.40;1.20;;;8.30;61.60;;;;;;5048976;28;20089;-70
2021/04/14 10:52:23;;;;;;;2.33;0.82;;;8.40;61.30;;;;;;5040013;28;20026;-69
2021/04/14 10:54:52;;;;;;;4.63;0.85;;;8.40;58.50;;;;;;5040554;28;20116;-70
2021/04/14 10:57:35;;;;;;;4.00;1.10;;;8.40;58.50;;;;;;5039574;28;20383;-70
2021/04/14 11:00:03;;;;;;;2.13;0.70;;;8.40;57.50;;;;;;5040522;28;20127;-70
2021/04/14 11:06:20;;;;;;;3.58;1.00;;;8.40;58.00;;;;;;4951460;29;20094;-68
2021/04/14 11:08:50;;;;;;;3.80;0.82;;;8.40;57.10;;;;;;4964585;28;20045;-68
2021/04/14 11:11:16;;;;;;;2.13;0.70;;;8.50;57.10;;;;;;5035453;28;20032;-69
2021/04/14 11:13:43;;;;;;;5.20;1.20;;;8.60;58.60;;;;;;5039971;28;20053;-69
2021/04/14 11:16:11;;;;;;;3.85;0.90;;;9.00;55.10;;;;;;5037775;28;20040;-69
2021/04/14 11:18:40;;;;;;;2.90;0.85;;;9.60;53.90;;;;;;5038956;28;20030;-69
2021/04/14 11:21:21;;;;;;;3.67;1.02;;;10.20;53.10;;;;;;5037650;28;20041;-68
2021/04/14 11:23:47;;;;;;;4.40;1.35;;;11.00;49.90;;;;;;5039872;28;20421;-69
2021/04/14 11:26:21;;;;;;;3.22;1.02;;;12.00;48.20;;;;;;5038594;28;20028;-70
2021/04/14 11:28:51;;;;;;;4.07;1.17;;;12.60;48.20;;;;;;5040918;28;20025;-69
2021/04/14 11:31:41;;;;;;;3.23;0.87;;;12.70;48.90;;;;;;5040677;28;20029;-69
2021/04/14 11:34:18;;;;;;;4.55;1.00;;;13.40;43.40;;;;;;5040648;28;20378;-70
2021/04/14 11:37:10;;;;;;;4.90;1.15;;;13.30;42.20;;;;;;5032056;28;20540;-70
2021/04/14 11:39:56;;;;;;;4.72;1.35;;;13.40;43.60;;;;;;5038481;28;20517;-71
2021/04/14 11:42:24;;;;;;;2.42;1.00;;;14.10;41.50;;;;;;5034630;28;20490;-72
2021/04/14 11:45:00;;;;;;;414.80;267.17;;;14.40;38.60;;;;;;5037669;28;20029;-70
2021/04/14 11:47:29;;;;;;;230.85;116.65;;;14.20;42.10;;;;;;5041087;28;20053;-70
2021/04/14 11:49:55;;;;;;;23.95;14.20;;;13.90;40.90;;;;;;5067326;22;20045;-68
2021/04/14 11:52:36;;;;;;;18.45;9.52;;;13.80;41.60;;;;;;5045210;28;21989;-68
2021/04/14 11:55:20;;;;;;;3.20;1.00;;;13.60;39.30;;;;;;5046149;28;20082;-68
2021/04/14 11:57:48;;;;;;;2.90;0.75;;;13.70;39.00;;;;;;5031953;28;20307;-68
2021/04/14 12:00:38;;;;;;;4.07;1.00;;;13.60;37.60;;;;;;5013999;28;20103;-69
2021/04/14 12:03:19;;;;;;;5.32;1.10;;;13.50;38.60;;;;;;5027651;28;20030;-70
2021/04/14 12:05:49;;;;;;;3.80;0.80;;;13.20;39.60;;;;;;5028250;28;20382;-70
2021/04/14 12:08:15;;;;;;;5.28;1.00;;;13.00;40.10;;;;;;5029627;28;20021;-70
2021/04/14 12:10:41;;;;;;;5.45;1.20;;;13.00;41.20;;;;;;5028055;28;20495;-69
2021/04/14 12:13:07;;;;;;;3.33;0.90;;;13.00;42.80;;;;;;5010095;28;20116;-69
2021/04/14 12:15:34;;;;;;;4.25;1.17;;;13.00;43.60;;;;;;5029525;28;20116;-69
2021/04/14 12:18:01;;;;;;;4.78;1.17;;;12.50;45.10;;;;;;5028111;28;20048;-69
2021/04/14 12:20:26;;;;;;;2.15;0.90;;;11.90;46.00;;;;;;5028983;28;20079;-69
2021/04/14 12:22:52;;;;;;;5.65;2.40;;;11.40;46.60;;;;;;5029301;28;20392;-69
2021/04/14 12:25:19;;;;;;;4.50;1.20;;;10.90;49.10;;;;;;5027441;28;20025;-68
2021/04/14 12:27:46;;;;;;;4.05;0.98;;;10.50;50.40;;;;;;5028840;28;20498;-68
2021/04/14 12:30:13;;;;;;;3.03;1.02;;;10.00;51.70;;;;;;5028937;28;20018;-69
2021/04/14 12:32:39;;;;;;;3.00;1.00;;;9.70;52.50;;;;;;5027415;28;20033;-69
2021/04/14 12:35:06;;;;;;;5.28;1.08;;;9.60;52.10;;;;;;5028299;28;20025;-69
2021/04/14 12:37:31;;;;;;;1.98;0.90;;;9.40;53.30;;;;;;5026021;28;20021;-69
2021/04/14 12:40:00;;;;;;;2.70;0.77;;;9.30;52.80;;;;;;5029438;28;20021;-69
2021/04/14 12:42:27;;;;;;;1.17;0.68;;;9.20;53.70;;;;;;5010976;28;20021;-69
2021/04/14 12:44:54;;;;;;;5.70;1.17;;;9.10;52.80;;;;;;5027210;28;20033;-69
2021/04/14 12:47:24;;;;;;;2.20;0.90;;;9.10;52.60;;;;;;5026235;28;20037;-69
2021/04/14 12:49:51;;;;;;;2.83;0.80;;;9.00;52.70;;;;;;5027161;28;20895;-69
2021/04/14 12:52:37;;;;;;;4.13;0.90;;;9.00;53.00;;;;;;5025666;28;20079;-69
2021/04/14 12:55:12;;;;;;;3.05;0.80;;;8.90;52.80;;;;;;5024715;28;20036;-68
2021/04/14 12:57:40;;;;;;;1.90;0.90;;;8.90;52.40;;;;;;5026676;28;20033;-70
2021/04/14 13:00:08;;;;;;;3.70;1.33;;;8.80;53.00;;;;;;5022997;28;20022;-67
2021/04/14 13:02:44;;;;;;;3.17;1.10;;;8.90;52.90;;;;;;5027165;28;20025;-68
2021/04/14 13:05:19;;;;;;;3.40;1.20;;;8.90;52.20;;;;;;5024077;28;20478;-68
2021/04/14 13:08:01;;;;;;;2.17;0.80;;;9.10;50.80;;;;;;5023542;28;20101;-69
2021/04/14 13:10:51;;;;;;;1.98;0.75;;;9.30;49.50;;;;;;5022313;28;20538;-68
2021/04/14 13:13:17;;;;;;;4.85;1.08;;;9.30;50.60;;;;;;5027543;28;20128;-68
2021/04/14 13:16:07;;;;;;;4.97;1.20;;;9.50;50.60;;;;;;5008990;28;20033;-68